sensor_id;sensor_type;location;lat;lon;timestamp;pressure;altitude;pressure_sealevel;temperature;humidity
55068;BME280;40965;52.368;9.712;2023-02-18T00:02:10;101239.66;;;5.88;87.23
55068;BME280;40965;52.368;9.712;2023-02-18T00:04:37;101235.38;;;5.90;87.53
55068;BME280;40965;52.368;9.712;2023-02-18T00:07:04;101233.75;;;5.95;87.50
55068;BME280;40965;52.368;9.712;2023-02-18T00:09:30;101229.34;;;5.91;87.55
55068;BME280;40965;52.368;9.712;2023-02-18T00:11:57;101229.34;;;5.91;87.74
55068;BME280;40965;52.368;9.712;2023-02-18T00:14:24;101225.78;;;5.87;88.03
55068;BME280;40965;52.368;9.712;2023-02-18T00:16:50;101223.06;;;5.81;88.69
55068;BME280;40965;52.368;9.712;2023-02-18T00:19:18;101227.47;;;5.85;88.69
55068;BME280;40965;52.368;9.712;2023-02-18T00:21:46;101223.38;;;5.96;88.16
55068;BME280;40965;52.368;9.712;2023-02-18T00:24:15;101218.22;;;5.98;87.77
55068;BME280;40965;52.368;9.712;2023-02-18T00:26:42;101216.44;;;5.97;87.85
55068;BME280;40965;52.368;9.712;2023-02-18T00:29:09;101205.19;;;5.96;88.17
55068;BME280;40965;52.368;9.712;2023-02-18T00:31:38;101212.09;;;5.94;88.36
55068;BME280;40965;52.368;9.712;2023-02-18T00:34:06;101217.28;;;5.94;88.49
55068;BME280;40965;52.368;9.712;2023-02-18T00:36:33;101222.59;;;6.01;88.61
55068;BME280;40965;52.368;9.712;2023-02-18T00:39:03;101228.72;;;6.03;88.70
55068;BME280;40965;52.368;9.712;2023-02-18T00:41:32;101225.28;;;6.04;88.70
55068;BME280;40965;52.368;9.712;2023-02-18T00:43:59;101222.69;;;6.04;88.98
55068;BME280;40965;52.368;9.712;2023-02-18T00:46:27;101213.03;;;6.00;88.83
55068;BME280;40965;52.368;9.712;2023-02-18T00:48:54;101216.34;;;5.91;89.55
55068;BME280;40965;52.368;9.712;2023-02-18T00:51:22;101228.41;;;5.89;89.70
55068;BME280;40965;52.368;9.712;2023-02-18T00:53:49;101225.84;;;5.90;89.76
55068;BME280;40965;52.368;9.712;2023-02-18T00:56:16;101225.78;;;5.87;89.63
55068;BME280;40965;52.368;9.712;2023-02-18T00:58:43;101220.47;;;5.83;89.83
55068;BME280;40965;52.368;9.712;2023-02-18T01:01:15;101223.84;;;5.77;90.47
55068;BME280;40965;52.368;9.712;2023-02-18T01:03:48;101230.72;;;5.75;90.64
55068;BME280;40965;52.368;9.712;2023-02-18T01:06:15;101226.28;;;5.69;91.42
55068;BME280;40965;52.368;9.712;2023-02-18T01:08:41;101232.28;;;5.65;91.59
55068;BME280;40965;52.368;9.712;2023-02-18T01:11:09;101229.69;;;5.67;91.79
55068;BME280;40965;52.368;9.712;2023-02-18T01:13:38;101234.97;;;5.70;91.80
55068;BME280;40965;52.368;9.712;2023-02-18T01:16:05;101235.09;;;5.76;91.55
55068;BME280;40965;52.368;9.712;2023-02-18T01:18:33;101236.13;;;5.84;91.14
55068;BME280;40965;52.368;9.712;2023-02-18T01:20:59;101227.69;;;5.96;90.49
55068;BME280;40965;52.368;9.712;2023-02-18T01:23:26;101223.59;;;6.07;90.30
55068;BME280;40965;52.368;9.712;2023-02-18T01:25:53;101222.78;;;6.10;89.94
55068;BME280;40965;52.368;9.712;2023-02-18T01:28:20;101223.81;;;6.18;89.23
55068;BME280;40965;52.368;9.712;2023-02-18T01:30:49;101221.22;;;6.18;89.48
55068;BME280;40965;52.368;9.712;2023-02-18T01:33:16;101226.44;;;6.20;89.18
55068;BME280;40965;52.368;9.712;2023-02-18T01:35:42;101221.28;;;6.24;88.96
55068;BME280;40965;52.368;9.712;2023-02-18T01:38:09;101213.59;;;6.29;88.82
55068;BME280;40965;52.368;9.712;2023-02-18T01:40:48;101203.28;;;6.34;88.34
55068;BME280;40965;52.368;9.712;2023-02-18T01:43:20;101212.00;;;6.37;88.46
55068;BME280;40965;52.368;9.712;2023-02-18T01:45:58;101201.69;;;6.42;88.40
55068;BME280;40965;52.368;9.712;2023-02-18T01:48:40;101208.69;;;6.46;88.49
55068;BME280;40965;52.368;9.712;2023-02-18T01:51:20;101211.31;;;6.48;88.66
55068;BME280;40965;52.368;9.712;2023-02-18T01:56:47;101218.31;;;6.52;88.39
55068;BME280;40965;52.368;9.712;2023-02-18T01:59:20;101207.06;;;6.54;88.27
55068;BME280;40965;52.368;9.712;2023-02-18T02:01:50;101206.25;;;6.57;88.27
55068;BME280;40965;52.368;9.712;2023-02-18T02:04:18;101200.19;;;6.58;88.62
55068;BME280;40965;52.368;9.712;2023-02-18T02:06:45;101194.19;;;6.60;88.37
55068;BME280;40965;52.368;9.712;2023-02-18T02:09:15;101188.16;;;6.65;88.42
55068;BME280;40965;52.368;9.712;2023-02-18T02:11:56;101179.63;;;6.72;88.02
55068;BME280;40965;52.368;9.712;2023-02-18T02:17:54;101175.34;;;6.75;87.80
55068;BME280;40965;52.368;9.712;2023-02-18T02:21:15;101166.53;;;6.67;88.46
55068;BME280;40965;52.368;9.712;2023-02-18T02:27:24;101179.63;;;6.73;88.64
55068;BME280;40965;52.368;9.712;2023-02-18T02:30:21;101183.09;;;6.72;88.61
55068;BME280;40965;52.368;9.712;2023-02-18T02:38:28;101176.22;;;6.77;89.32
55068;BME280;40965;52.368;9.712;2023-02-18T02:41:17;101169.34;;;6.81;89.89
55068;BME280;40965;52.368;9.712;2023-02-18T02:46:40;101165.06;;;6.85;90.15
55068;BME280;40965;52.368;9.712;2023-02-18T02:49:47;101168.56;;;6.87;90.77
55068;BME280;40965;52.368;9.712;2023-02-18T02:52:33;101160.81;;;6.90;90.92
55068;BME280;40965;52.368;9.712;2023-02-18T02:55:08;101153.88;;;6.90;90.82
55068;BME280;40965;52.368;9.712;2023-02-18T02:57:46;101150.38;;;6.88;91.34
55068;BME280;40965;52.368;9.712;2023-02-18T03:00:16;101148.63;;;6.89;91.63
55068;BME280;40965;52.368;9.712;2023-02-18T03:03:14;101146.91;;;6.91;92.13
55068;BME280;40965;52.368;9.712;2023-02-18T03:05:51;101139.09;;;6.91;92.57
55068;BME280;40965;52.368;9.712;2023-02-18T03:15:04;101139.28;;;7.02;94.47
55068;BME280;40965;52.368;9.712;2023-02-18T03:20:26;101130.53;;;6.98;96.21
55068;BME280;40965;52.368;9.712;2023-02-18T03:22:55;101122.75;;;6.98;97.11
55068;BME280;40965;52.368;9.712;2023-02-18T03:25:24;101108.84;;;6.98;98.28
55068;BME280;40965;52.368;9.712;2023-02-18T03:27:54;101114.03;;;6.96;98.91
55068;BME280;40965;52.368;9.712;2023-02-18T03:30:26;101109.72;;;6.98;99.65
55068;BME280;40965;52.368;9.712;2023-02-18T03:33:00;101097.56;;;6.99;100.00
55068;BME280;40965;52.368;9.712;2023-02-18T03:35:29;101098.47;;;7.01;100.00
55068;BME280;40965;52.368;9.712;2023-02-18T03:38:09;101098.47;;;6.99;100.00
55068;BME280;40965;52.368;9.712;2023-02-18T03:40:40;101095.88;;;7.02;100.00
55068;BME280;40965;52.368;9.712;2023-02-18T03:43:07;101092.47;;;7.06;100.00
55068;BME280;40965;52.368;9.712;2023-02-18T03:45:34;101099.50;;;7.14;100.00
55068;BME280;40965;52.368;9.712;2023-02-18T03:48:00;101087.38;;;7.16;100.00
55068;BME280;40965;52.368;9.712;2023-02-18T03:50:27;101082.22;;;7.19;100.00
55068;BME280;40965;52.368;9.712;2023-02-18T03:52:53;101086.53;;;7.17;100.00
55068;BME280;40965;52.368;9.712;2023-02-18T03:55:23;101073.50;;;7.18;100.00
55068;BME280;40965;52.368;9.712;2023-02-18T03:57:50;101081.38;;;7.20;100.00
55068;BME280;40965;52.368;9.712;2023-02-18T04:00:16;101073.59;;;7.26;100.00
55068;BME280;40965;52.368;9.712;2023-02-18T04:02:43;101068.44;;;7.27;100.00
55068;BME280;40965;52.368;9.712;2023-02-18T04:05:10;101075.38;;;7.28;100.00
55068;BME280;40965;52.368;9.712;2023-02-18T04:07:37;101068.41;;;7.26;100.00
55068;BME280;40965;52.368;9.712;2023-02-18T04:10:05;101070.97;;;7.23;100.00
55068;BME280;40965;52.368;9.712;2023-02-18T04:12:35;101067.50;;;7.22;100.00
55068;BME280;40965;52.368;9.712;2023-02-18T04:15:04;101061.47;;;7.25;100.00
55068;BME280;40965;52.368;9.712;2023-02-18T04:17:32;101061.47;;;7.25;100.00
55068;BME280;40965;52.368;9.712;2023-02-18T04:19:59;101053.66;;;7.25;100.00
55068;BME280;40965;52.368;9.712;2023-02-18T04:22:28;101057.97;;;7.26;100.00
55068;BME280;40965;52.368;9.712;2023-02-18T04:24:55;101067.53;;;7.25;100.00
55068;BME280;40965;52.368;9.712;2023-02-18T04:27:21;101062.31;;;7.22;100.00
55068;BME280;40965;52.368;9.712;2023-02-18T04:29:52;101066.59;;;7.17;100.00
55068;BME280;40965;52.368;9.712;2023-02-18T04:32:18;101065.63;;;7.10;100.00
55068;BME280;40965;52.368;9.712;2023-02-18T04:34:45;101058.59;;;7.03;100.00
55068;BME280;40965;52.368;9.712;2023-02-18T04:37:12;101049.84;;;6.97;100.00
55068;BME280;40965;52.368;9.712;2023-02-18T04:39:38;101054.97;;;6.92;100.00
55068;BME280;40965;52.368;9.712;2023-02-18T04:42:05;101052.31;;;6.86;100.00
55068;BME280;40965;52.368;9.712;2023-02-18T04:44:37;101044.44;;;6.81;100.00
55068;BME280;40965;52.368;9.712;2023-02-18T04:47:04;101041.75;;;6.76;100.00
55068;BME280;40965;52.368;9.712;2023-02-18T04:49:31;101033.06;;;6.73;100.00
55068;BME280;40965;52.368;9.712;2023-02-18T04:51:58;101033.84;;;6.67;100.00
55068;BME280;40965;52.368;9.712;2023-02-18T04:54:27;101032.91;;;6.62;100.00
55068;BME280;40965;52.368;9.712;2023-02-18T04:56:56;101024.22;;;6.58;100.00
55068;BME280;40965;52.368;9.712;2023-02-18T04:59:23;101027.59;;;6.54;100.00
55068;BME280;40965;52.368;9.712;2023-02-18T05:01:50;101014.56;;;6.51;100.00
55068;BME280;40965;52.368;9.712;2023-02-18T05:04:16;101013.63;;;6.44;100.00
55068;BME280;40965;52.368;9.712;2023-02-18T05:06:43;101026.63;;;6.44;100.00
55068;BME280;40965;52.368;9.712;2023-02-18T05:09:10;101010.09;;;6.41;100.00
55068;BME280;40965;52.368;9.712;2023-02-18T05:11:36;101014.44;;;6.40;100.00
55068;BME280;40965;52.368;9.712;2023-02-18T05:14:03;100998.81;;;6.39;100.00
55068;BME280;40965;52.368;9.712;2023-02-18T05:16:33;100993.59;;;6.39;100.00
55068;BME280;40965;52.368;9.712;2023-02-18T05:19:00;100988.41;;;6.40;100.00
55068;BME280;40965;52.368;9.712;2023-02-18T05:21:38;100985.84;;;6.42;100.00
55068;BME280;40965;52.368;9.712;2023-02-18T05:24:13;100989.38;;;6.47;100.00
55068;BME280;40965;52.368;9.712;2023-02-18T05:26:45;100983.34;;;6.50;100.00
55068;BME280;40965;52.368;9.712;2023-02-18T05:29:12;100981.66;;;6.53;100.00
55068;BME280;40965;52.368;9.712;2023-02-18T05:31:38;100981.69;;;6.55;100.00
55068;BME280;40965;52.368;9.712;2023-02-18T05:34:07;100974.72;;;6.55;100.00
55068;BME280;40965;52.368;9.712;2023-02-18T05:36:34;100969.59;;;6.60;100.00
55068;BME280;40965;52.368;9.712;2023-02-18T05:39:01;100967.00;;;6.61;100.00
55068;BME280;40965;52.368;9.712;2023-02-18T05:41:28;100965.34;;;6.65;100.00
55068;BME280;40965;52.368;9.712;2023-02-18T05:43:54;100954.94;;;6.67;100.00
55068;BME280;40965;52.368;9.712;2023-02-18T05:46:38;100945.38;;;6.67;100.00
55068;BME280;40965;52.368;9.712;2023-02-18T05:49:08;100934.97;;;6.66;100.00
55068;BME280;40965;52.368;9.712;2023-02-18T05:51:35;100936.75;;;6.71;100.00
55068;BME280;40965;52.368;9.712;2023-02-18T05:54:02;100934.22;;;6.76;100.00
55068;BME280;40965;52.368;9.712;2023-02-18T05:56:29;100931.72;;;6.84;100.00
55068;BME280;40965;52.368;9.712;2023-02-18T05:58:56;100931.72;;;6.85;100.00
55068;BME280;40965;52.368;9.712;2023-02-18T06:01:42;100924.84;;;6.90;100.00
55068;BME280;40965;52.368;9.712;2023-02-18T06:04:09;100916.19;;;6.91;100.00
55068;BME280;40965;52.368;9.712;2023-02-18T06:06:35;100911.84;;;6.93;100.00
55068;BME280;40965;52.368;9.712;2023-02-18T06:09:03;100907.56;;;6.97;100.00
55068;BME280;40965;52.368;9.712;2023-02-18T06:11:30;100904.13;;;7.01;100.00
55068;BME280;40965;52.368;9.712;2023-02-18T06:13:57;100894.63;;;7.05;100.00
55068;BME280;40965;52.368;9.712;2023-02-18T06:16:23;100892.91;;;7.08;100.00
55068;BME280;40965;52.368;9.712;2023-02-18T06:18:50;100889.47;;;7.11;100.00
55068;BME280;40965;52.368;9.712;2023-02-18T06:21:17;100886.88;;;7.12;100.00
55068;BME280;40965;52.368;9.712;2023-02-18T06:23:43;100878.22;;;7.14;100.00
55068;BME280;40965;52.368;9.712;2023-02-18T06:26:10;100866.06;;;7.12;100.00
55068;BME280;40965;52.368;9.712;2023-02-18T06:28:37;100853.03;;;7.14;100.00
55068;BME280;40965;52.368;9.712;2023-02-18T06:31:04;100843.47;;;7.13;100.00
55068;BME280;40965;52.368;9.712;2023-02-18T06:33:30;100838.31;;;7.16;100.00
55068;BME280;40965;52.368;9.712;2023-02-18T06:35:59;100833.97;;;7.17;100.00
55068;BME280;40965;52.368;9.712;2023-02-18T06:38:27;100827.91;;;7.19;100.00
55068;BME280;40965;52.368;9.712;2023-02-18T06:40:54;100826.22;;;7.21;100.00
55068;BME280;40965;52.368;9.712;2023-02-18T06:43:21;100827.97;;;7.22;100.00
55068;BME280;40965;52.368;9.712;2023-02-18T06:45:47;100812.34;;;7.24;100.00
55068;BME280;40965;52.368;9.712;2023-02-18T06:48:14;100819.31;;;7.28;100.00
55068;BME280;40965;52.368;9.712;2023-02-18T06:50:41;100817.56;;;7.27;100.00
55068;BME280;40965;52.368;9.712;2023-02-18T06:53:08;100812.34;;;7.27;100.00
55068;BME280;40965;52.368;9.712;2023-02-18T06:55:34;100804.59;;;7.30;100.00
55068;BME280;40965;52.368;9.712;2023-02-18T06:58:01;100801.09;;;7.29;100.00
55068;BME280;40965;52.368;9.712;2023-02-18T07:00:29;100798.53;;;7.33;100.00
55068;BME280;40965;52.368;9.712;2023-02-18T07:02:55;100786.38;;;7.33;100.00
55068;BME280;40965;52.368;9.712;2023-02-18T07:05:23;100784.63;;;7.35;100.00
55068;BME280;40965;52.368;9.712;2023-02-18T07:07:50;100783.75;;;7.38;100.00
55068;BME280;40965;52.368;9.712;2023-02-18T07:10:16;100784.66;;;7.40;100.00
55068;BME280;40965;52.368;9.712;2023-02-18T07:12:43;100770.78;;;7.41;100.00
55068;BME280;40965;52.368;9.712;2023-02-18T07:15:10;100763.84;;;7.41;100.00
55068;BME280;40965;52.368;9.712;2023-02-18T07:17:36;100771.66;;;7.41;100.00
55068;BME280;40965;52.368;9.712;2023-02-18T07:20:04;100761.22;;;7.41;100.00
55068;BME280;40965;52.368;9.712;2023-02-18T07:22:31;100759.47;;;7.39;100.00
55068;BME280;40965;52.368;9.712;2023-02-18T07:24:58;100760.38;;;7.41;100.00
55068;BME280;40965;52.368;9.712;2023-02-18T07:27:25;100756.03;;;7.41;100.00
55068;BME280;40965;52.368;9.712;2023-02-18T07:29:52;100744.75;;;7.41;100.00
55068;BME280;40965;52.368;9.712;2023-02-18T07:32:18;100732.56;;;7.41;100.00
55068;BME280;40965;52.368;9.712;2023-02-18T07:34:45;100725.66;;;7.42;100.00
55068;BME280;40965;52.368;9.712;2023-02-18T07:37:12;100716.94;;;7.43;100.00
55068;BME280;40965;52.368;9.712;2023-02-18T07:39:40;100719.56;;;7.43;100.00
55068;BME280;40965;52.368;9.712;2023-02-18T07:42:09;100716.09;;;7.44;100.00
55068;BME280;40965;52.368;9.712;2023-02-18T07:44:37;100703.97;;;7.46;100.00
55068;BME280;40965;52.368;9.712;2023-02-18T07:47:05;100705.72;;;7.47;100.00
55068;BME280;40965;52.368;9.712;2023-02-18T07:49:33;100704.84;;;7.51;100.00
55068;BME280;40965;52.368;9.712;2023-02-18T07:52:00;100695.31;;;7.55;100.00
55068;BME280;40965;52.368;9.712;2023-02-18T07:54:27;100694.47;;;7.60;100.00
55068;BME280;40965;52.368;9.712;2023-02-18T07:56:53;100688.44;;;7.71;100.00
55068;BME280;40965;52.368;9.712;2023-02-18T07:59:20;100683.25;;;7.82;100.00
55068;BME280;40965;52.368;9.712;2023-02-18T08:01:47;100674.59;;;7.89;100.00
55068;BME280;40965;52.368;9.712;2023-02-18T08:04:13;100662.44;;;7.97;100.00
55068;BME280;40965;52.368;9.712;2023-02-18T08:06:43;100668.53;;;8.13;100.00
55068;BME280;40965;52.368;9.712;2023-02-18T08:09:12;100669.41;;;8.27;100.00
55068;BME280;40965;52.368;9.712;2023-02-18T08:11:39;100668.56;;;8.42;100.00
55068;BME280;40965;52.368;9.712;2023-02-18T08:14:06;100658.16;;;8.55;100.00
55068;BME280;40965;52.368;9.712;2023-02-18T08:16:33;100665.97;;;8.69;100.00
55068;BME280;40965;52.368;9.712;2023-02-18T08:19:00;100662.47;;;8.76;100.00
55068;BME280;40965;52.368;9.712;2023-02-18T08:21:27;100669.44;;;8.83;100.00
55068;BME280;40965;52.368;9.712;2023-02-18T08:23:56;100653.75;;;8.85;100.00
55068;BME280;40965;52.368;9.712;2023-02-18T08:26:24;100646.78;;;8.96;100.00
55068;BME280;40965;52.368;9.712;2023-02-18T08:28:51;100658.94;;;9.02;100.00
55068;BME280;40965;52.368;9.712;2023-02-18T08:31:24;100649.38;;;9.10;100.00
55068;BME280;40965;52.368;9.712;2023-02-18T08:33:52;100644.13;;;9.19;100.00
55068;BME280;40965;52.368;9.712;2023-02-18T08:36:20;100637.13;;;9.27;100.00
55068;BME280;40965;52.368;9.712;2023-02-18T08:38:48;100624.03;;;9.31;100.00
55068;BME280;40965;52.368;9.712;2023-02-18T08:41:15;100630.13;;;9.33;100.00
55068;BME280;40965;52.368;9.712;2023-02-18T08:43:45;100637.13;;;9.27;100.00
55068;BME280;40965;52.368;9.712;2023-02-18T08:46:12;100619.69;;;9.33;100.00
55068;BME280;40965;52.368;9.712;2023-02-18T08:48:39;100625.78;;;9.25;100.00
55068;BME280;40965;52.368;9.712;2023-02-18T08:51:20;100619.69;;;9.28;100.00
55068;BME280;40965;52.368;9.712;2023-02-18T08:53:48;100620.56;;;9.25;100.00
55068;BME280;40965;52.368;9.712;2023-02-18T08:56:15;100597.94;;;9.27;100.00
55068;BME280;40965;52.368;9.712;2023-02-18T08:58:42;100612.72;;;9.35;100.00
55068;BME280;40965;52.368;9.712;2023-02-18T09:01:11;100612.69;;;9.39;100.00
55068;BME280;40965;52.368;9.712;2023-02-18T09:03:38;100616.16;;;9.38;100.00
55068;BME280;40965;52.368;9.712;2023-02-18T09:06:05;100596.09;;;9.47;100.00
55068;BME280;40965;52.368;9.712;2023-02-18T09:08:33;100600.41;;;9.52;100.00
55068;BME280;40965;52.368;9.712;2023-02-18T09:11:01;100591.69;;;9.55;100.00
55068;BME280;40965;52.368;9.712;2023-02-18T09:13:31;100597.72;;;9.63;100.00
55068;BME280;40965;52.368;9.712;2023-02-18T09:16:03;100593.34;;;9.70;100.00
55068;BME280;40965;52.368;9.712;2023-02-18T09:18:34;100595.91;;;9.76;100.00
55068;BME280;40965;52.368;9.712;2023-02-18T09:21:03;100576.66;;;9.88;100.00
55068;BME280;40965;52.368;9.712;2023-02-18T09:23:32;100568.78;;;9.92;100.00
55068;BME280;40965;52.368;9.712;2023-02-18T09:26:06;100567.84;;;10.00;100.00
55068;BME280;40965;52.368;9.712;2023-02-18T09:28:40;100577.34;;;10.10;100.00
55068;BME280;40965;52.368;9.712;2023-02-18T09:31:17;100582.59;;;10.13;100.00
55068;BME280;40965;52.368;9.712;2023-02-18T09:33:49;100582.59;;;10.13;100.00
55068;BME280;40965;52.368;9.712;2023-02-18T09:36:18;100579.06;;;10.14;100.00
55068;BME280;40965;52.368;9.712;2023-02-18T09:38:45;100568.56;;;10.23;100.00
55068;BME280;40965;52.368;9.712;2023-02-18T09:41:30;100581.56;;;10.28;100.00
55068;BME280;40965;52.368;9.712;2023-02-18T09:44:01;100567.59;;;10.31;100.00
55068;BME280;40965;52.368;9.712;2023-02-18T09:46:38;100579.78;;;10.33;100.00
55068;BME280;40965;52.368;9.712;2023-02-18T09:49:15;100580.69;;;10.31;100.00
55068;BME280;40965;52.368;9.712;2023-02-18T09:51:43;100578.16;;;10.20;100.00
55068;BME280;40965;52.368;9.712;2023-02-18T09:54:11;100561.66;;;10.10;100.00
55068;BME280;40965;52.368;9.712;2023-02-18T09:56:42;100583.47;;;10.07;100.00
55068;BME280;40965;52.368;9.712;2023-02-18T09:59:19;100554.72;;;10.09;100.00
55068;BME280;40965;52.368;9.712;2023-02-18T10:01:53;100572.09;;;10.16;100.00
55068;BME280;40965;52.368;9.712;2023-02-18T10:04:26;100564.16;;;10.24;100.00
55068;BME280;40965;52.368;9.712;2023-02-18T10:06:56;100546.72;;;10.23;100.00
55068;BME280;40965;52.368;9.712;2023-02-18T10:09:37;100551.09;;;10.24;100.00
55068;BME280;40965;52.368;9.712;2023-02-18T10:12:14;100543.16;;;10.32;100.00
55068;BME280;40965;52.368;9.712;2023-02-18T10:14:57;100555.38;;;10.33;100.00
55068;BME280;40965;52.368;9.712;2023-02-18T10:17:27;100557.16;;;10.27;100.00
55068;BME280;40965;52.368;9.712;2023-02-18T10:19:57;100561.59;;;10.21;100.00
55068;BME280;40965;52.368;9.712;2023-02-18T10:22:26;100561.66;;;10.12;100.00
55068;BME280;40965;52.368;9.712;2023-02-18T10:24:56;100569.56;;;10.02;100.00
55068;BME280;40965;52.368;9.712;2023-02-18T10:27:29;100551.41;;;9.88;100.00
55068;BME280;40965;52.368;9.712;2023-02-18T10:30:09;100559.31;;;9.77;100.00
55068;BME280;40965;52.368;9.712;2023-02-18T10:32:47;100558.50;;;9.69;100.00
55068;BME280;40965;52.368;9.712;2023-02-18T10:38:28;100550.72;;;9.62;100.00
55068;BME280;40965;52.368;9.712;2023-02-18T10:41:12;100568.19;;;9.53;100.00
55068;BME280;40965;52.368;9.712;2023-02-18T10:44:25;100562.09;;;9.54;100.00
55068;BME280;40965;52.368;9.712;2023-02-18T10:47:14;100567.31;;;9.56;100.00
55068;BME280;40965;52.368;9.712;2023-02-18T10:49:57;100544.63;;;9.58;100.00
55068;BME280;40965;52.368;9.712;2023-02-18T10:52:29;100552.50;;;9.55;100.00
55068;BME280;40965;52.368;9.712;2023-02-18T10:57:23;100539.38;;;9.63;100.00
55068;BME280;40965;52.368;9.712;2023-02-18T11:02:44;100534.88;;;9.83;100.00
55068;BME280;40965;52.368;9.712;2023-02-18T11:05:25;100532.25;;;9.83;100.00
55068;BME280;40965;52.368;9.712;2023-02-18T11:07:55;100528.69;;;9.90;100.00
55068;BME280;40965;52.368;9.712;2023-02-18T11:10:25;100535.59;;;10.01;100.00
55068;BME280;40965;52.368;9.712;2023-02-18T11:12:59;100532.03;;;10.11;100.00
55068;BME280;40965;52.368;9.712;2023-02-18T11:15:28;100523.31;;;10.10;100.00
55068;BME280;40965;52.368;9.712;2023-02-18T11:17:57;100526.00;;;10.03;100.00
55068;BME280;40965;52.368;9.712;2023-02-18T11:20:38;100539.16;;;9.92;100.00
55068;BME280;40965;52.368;9.712;2023-02-18T11:25:37;100545.41;;;9.75;100.00
55068;BME280;40965;52.368;9.712;2023-02-18T11:30:40;100542.06;;;9.53;100.00
55068;BME280;40965;52.368;9.712;2023-02-18T11:33:15;100558.59;;;9.52;100.00
55068;BME280;40965;52.368;9.712;2023-02-18T11:35:50;100544.69;;;9.49;100.00
55068;BME280;40965;52.368;9.712;2023-02-18T11:38:36;100543.88;;;9.42;100.00
55068;BME280;40965;52.368;9.712;2023-02-18T11:41:14;100540.38;;;9.38;100.00
55068;BME280;40965;52.368;9.712;2023-02-18T11:43:49;100530.81;;;9.39;100.00
55068;BME280;40965;52.368;9.712;2023-02-18T11:46:23;100540.41;;;9.35;100.00
55068;BME280;40965;52.368;9.712;2023-02-18T11:48:53;100536.09;;;9.33;100.00
55068;BME280;40965;52.368;9.712;2023-02-18T11:51:33;100542.22;;;9.24;100.00
55068;BME280;40965;52.368;9.712;2023-02-18T11:54:03;100541.31;;;9.28;100.00
55068;BME280;40965;52.368;9.712;2023-02-18T11:56:34;100538.75;;;9.23;100.00
55068;BME280;40965;52.368;9.712;2023-02-18T11:59:09;100532.72;;;9.15;100.00
55068;BME280;40965;52.368;9.712;2023-02-18T12:01:45;100523.16;;;9.13;100.00
55068;BME280;40965;52.368;9.712;2023-02-18T12:04:28;100534.47;;;9.07;100.00
55068;BME280;40965;52.368;9.712;2023-02-18T12:07:25;100522.28;;;9.06;100.00
55068;BME280;40965;52.368;9.712;2023-02-18T12:10:10;100530.97;;;9.14;100.00
55068;BME280;40965;52.368;9.712;2023-02-18T12:12:57;100528.34;;;9.11;100.00
55068;BME280;40965;52.368;9.712;2023-02-18T12:15:55;100503.06;;;9.19;100.00
55068;BME280;40965;52.368;9.712;2023-02-18T12:19:00;100530.03;;;9.23;100.00
55068;BME280;40965;52.368;9.712;2023-02-18T12:21:55;100517.84;;;9.25;100.00
55068;BME280;40965;52.368;9.712;2023-02-18T12:27:47;100523.03;;;9.31;100.00
55068;BME280;40965;52.368;9.712;2023-02-18T12:30:38;100544.81;;;9.30;100.00
55068;BME280;40965;52.368;9.712;2023-02-18T12:36:47;100555.38;;;9.10;100.00
55068;BME280;40965;52.368;9.712;2023-02-18T12:39:59;100531.00;;;9.02;100.00
55068;BME280;40965;52.368;9.712;2023-02-18T12:58:33;100560.50;;;9.22;100.00
55068;BME280;40965;52.368;9.712;2023-02-18T13:01:18;100580.56;;;9.22;100.00
55068;BME280;40965;52.368;9.712;2023-02-18T13:04:02;100558.78;;;9.24;100.00
55068;BME280;40965;52.368;9.712;2023-02-18T13:10:10;100543.97;;;9.25;100.00
55068;BME280;40965;52.368;9.712;2023-02-18T13:13:02;100564.88;;;9.22;100.00
55068;BME280;40965;52.368;9.712;2023-02-18T13:15:41;100572.75;;;9.16;100.00
55068;BME280;40965;52.368;9.712;2023-02-18T13:18:18;100574.50;;;9.15;100.00
55068;BME280;40965;52.368;9.712;2023-02-18T13:20:51;100574.50;;;9.12;100.00
55068;BME280;40965;52.368;9.712;2023-02-18T13:23:28;100572.78;;;9.06;100.00
55068;BME280;40965;52.368;9.712;2023-02-18T13:26:03;100562.34;;;9.00;100.00
55068;BME280;40965;52.368;9.712;2023-02-18T13:28:41;100578.91;;;8.91;100.00
55068;BME280;40965;52.368;9.712;2023-02-18T13:31:27;100581.53;;;8.93;100.00
55068;BME280;40965;52.368;9.712;2023-02-18T13:39:58;100587.66;;;8.83;100.00
55068;BME280;40965;52.368;9.712;2023-02-18T13:42:34;100586.78;;;8.81;100.00
55068;BME280;40965;52.368;9.712;2023-02-18T13:45:24;100592.88;;;8.78;100.00
55068;BME280;40965;52.368;9.712;2023-02-18T13:47:56;100593.75;;;8.74;100.00
55068;BME280;40965;52.368;9.712;2023-02-18T13:50:30;100599.00;;;8.71;100.00
55068;BME280;40965;52.368;9.712;2023-02-18T13:55:34;100603.34;;;8.70;100.00
55068;BME280;40965;52.368;9.712;2023-02-18T13:58:17;100608.59;;;8.66;100.00
55068;BME280;40965;52.368;9.712;2023-02-18T14:00:50;100612.03;;;8.69;100.00
55068;BME280;40965;52.368;9.712;2023-02-18T14:05:56;100605.94;;;8.76;100.00
55068;BME280;40965;52.368;9.712;2023-02-18T14:08:33;100615.50;;;8.76;100.00
55068;BME280;40965;52.368;9.712;2023-02-18T14:13:48;100616.38;;;8.72;100.00
55068;BME280;40965;52.368;9.712;2023-02-18T14:16:22;100622.47;;;8.69;100.00
55068;BME280;40965;52.368;9.712;2023-02-18T14:18:58;100613.78;;;8.64;100.00
55068;BME280;40965;52.368;9.712;2023-02-18T14:21:39;100622.47;;;8.60;100.00
55068;BME280;40965;52.368;9.712;2023-02-18T14:24:09;100622.50;;;8.58;100.00
55068;BME280;40965;52.368;9.712;2023-02-18T14:26:48;100618.13;;;8.59;100.00
55068;BME280;40965;52.368;9.712;2023-02-18T14:29:26;100635.53;;;8.60;100.00
55068;BME280;40965;52.368;9.712;2023-02-18T14:32:09;100637.28;;;8.58;100.00
55068;BME280;40965;52.368;9.712;2023-02-18T14:34:43;100640.75;;;8.57;100.00
55068;BME280;40965;52.368;9.712;2023-02-18T14:37:48;100643.34;;;8.66;100.00